sensor_id;sensor_type;location;lat;lon;timestamp;P1;durP1;ratioP1;P2;durP2;ratioP2
1959;SDS011;980;43.794;11.212;2024-02-14T11:26:00;23.50;;;23.00;;
1959;SDS011;980;43.794;11.212;2024-02-14T11:28:28;26.50;;;24.75;;
1959;SDS011;980;43.794;11.212;2024-02-14T11:30:58;27.00;;;24.75;;
1959;SDS011;980;43.794;11.212;2024-02-14T11:33:24;22.50;;;22.00;;
1959;SDS011;980;43.794;11.212;2024-02-14T11:35:51;26.25;;;23.00;;
1959;SDS011;980;43.794;11.212;2024-02-14T11:38:18;28.00;;;27.25;;
1959;SDS011;980;43.794;11.212;2024-02-14T11:40:44;27.50;;;26.00;;
1959;SDS011;980;43.794;11.212;2024-02-14T11:43:13;28.25;;;24.50;;
1959;SDS011;980;43.794;11.212;2024-02-14T11:45:39;16.50;;;16.50;;
1959;SDS011;980;43.794;11.212;2024-02-14T11:48:07;21.50;;;17.75;;
1959;SDS011;980;43.794;11.212;2024-02-14T11:50:32;49.25;;;38.75;;
1959;SDS011;980;43.794;11.212;2024-02-14T11:52:58;35.25;;;32.00;;
1959;SDS011;980;43.794;11.212;2024-02-14T11:55:27;26.50;;;24.25;;
1959;SDS011;980;43.794;11.212;2024-02-14T11:57:53;26.00;;;24.00;;
1959;SDS011;980;43.794;11.212;2024-02-14T12:00:19;25.00;;;24.00;;
1959;SDS011;980;43.794;11.212;2024-02-14T12:02:44;20.00;;;20.00;;
1959;SDS011;980;43.794;11.212;2024-02-14T12:05:10;37.75;;;34.25;;
1959;SDS011;980;43.794;11.212;2024-02-14T12:07:35;32.00;;;30.50;;
1959;SDS011;980;43.794;11.212;2024-02-14T12:10:00;27.25;;;25.50;;
1959;SDS011;980;43.794;11.212;2024-02-14T12:12:26;31.25;;;27.50;;
1959;SDS011;980;43.794;11.212;2024-02-14T12:14:51;22.00;;;19.75;;
1959;SDS011;980;43.794;11.212;2024-02-14T12:17:17;23.25;;;22.75;;
1959;SDS011;980;43.794;11.212;2024-02-14T12:19:46;21.25;;;17.25;;
1959;SDS011;980;43.794;11.212;2024-02-14T12:22:13;21.50;;;20.25;;
1959;SDS011;980;43.794;11.212;2024-02-14T12:24:44;18.00;;;14.00;;
1959;SDS011;980;43.794;11.212;2024-02-14T12:27:10;16.00;;;15.00;;
1959;SDS011;980;43.794;11.212;2024-02-14T12:29:35;17.50;;;16.25;;
1959;SDS011;980;43.794;11.212;2024-02-14T12:32:07;13.50;;;13.50;;
1959;SDS011;980;43.794;11.212;2024-02-14T12:34:32;17.25;;;16.25;;
1959;SDS011;980;43.794;11.212;2024-02-14T12:36:58;20.75;;;20.00;;
1959;SDS011;980;43.794;11.212;2024-02-14T12:39:24;17.50;;;16.25;;
1959;SDS011;980;43.794;11.212;2024-02-14T12:41:51;21.25;;;17.50;;
1959;SDS011;980;43.794;11.212;2024-02-14T12:44:17;17.75;;;16.00;;
1959;SDS011;980;43.794;11.212;2024-02-14T12:46:42;24.00;;;19.75;;
1959;SDS011;980;43.794;11.212;2024-02-14T12:49:08;17.50;;;16.00;;
1959;SDS011;980;43.794;11.212;2024-02-14T12:51:36;17.50;;;17.25;;
1959;SDS011;980;43.794;11.212;2024-02-14T12:54:03;18.00;;;15.00;;
1959;SDS011;980;43.794;11.212;2024-02-14T12:56:29;19.50;;;17.25;;
1959;SDS011;980;43.794;11.212;2024-02-14T12:58:54;18.00;;;16.00;;
1959;SDS011;980;43.794;11.212;2024-02-14T13:01:20;18.50;;;15.50;;
1959;SDS011;980;43.794;11.212;2024-02-14T13:03:45;19.00;;;18.25;;
1959;SDS011;980;43.794;11.212;2024-02-14T13:06:13;21.50;;;19.75;;
1959;SDS011;980;43.794;11.212;2024-02-14T13:08:41;21.00;;;17.50;;
1959;SDS011;980;43.794;11.212;2024-02-14T13:11:07;14.75;;;14.75;;
1959;SDS011;980;43.794;11.212;2024-02-14T13:13:33;16.75;;;16.50;;
1959;SDS011;980;43.794;11.212;2024-02-14T13:15:59;15.00;;;13.00;;
1959;SDS011;980;43.794;11.212;2024-02-14T13:18:25;15.50;;;12.75;;
1959;SDS011;980;43.794;11.212;2024-02-14T13:20:50;17.50;;;14.25;;
1959;SDS011;980;43.794;11.212;2024-02-14T13:23:22;15.50;;;14.00;;
1959;SDS011;980;43.794;11.212;2024-02-14T13:25:48;15.50;;;13.50;;
1959;SDS011;980;43.794;11.212;2024-02-14T13:28:14;11.00;;;11.00;;
1959;SDS011;980;43.794;11.212;2024-02-14T13:30:39;13.00;;;11.00;;
1959;SDS011;980;43.794;11.212;2024-02-14T13:33:05;12.00;;;11.50;;
1959;SDS011;980;43.794;11.212;2024-02-14T13:35:30;10.50;;;10.50;;
1959;SDS011;980;43.794;11.212;2024-02-14T13:37:57;14.50;;;10.75;;
1959;SDS011;980;43.794;11.212;2024-02-14T13:40:23;16.25;;;11.50;;
1959;SDS011;980;43.794;11.212;2024-02-14T13:42:48;14.75;;;10.25;;
1959;SDS011;980;43.794;11.212;2024-02-14T13:45:14;13.50;;;11.25;;
1959;SDS011;980;43.794;11.212;2024-02-14T13:47:41;14.75;;;11.25;;
1959;SDS011;980;43.794;11.212;2024-02-14T13:50:09;14.25;;;13.00;;
1959;SDS011;980;43.794;11.212;2024-02-14T13:52:35;13.50;;;13.50;;
1959;SDS011;980;43.794;11.212;2024-02-14T14:41:57;13.75;;;13.25;;
1959;SDS011;980;43.794;11.212;2024-02-14T14:44:26;12.00;;;12.00;;
1959;SDS011;980;43.794;11.212;2024-02-14T14:46:52;12.25;;;11.50;;
1959;SDS011;980;43.794;11.212;2024-02-14T14:49:18;14.75;;;12.00;;
1959;SDS011;980;43.794;11.212;2024-02-14T14:51:43;15.50;;;15.00;;
1959;SDS011;980;43.794;11.212;2024-02-14T14:54:09;14.00;;;14.00;;
1959;SDS011;980;43.794;11.212;2024-02-14T14:56:34;17.50;;;15.25;;
1959;SDS011;980;43.794;11.212;2024-02-14T14:58:59;15.00;;;14.00;;
1959;SDS011;980;43.794;11.212;2024-02-14T15:01:28;19.00;;;16.75;;
1959;SDS011;980;43.794;11.212;2024-02-14T15:03:54;15.75;;;14.00;;
1959;SDS011;980;43.794;11.212;2024-02-14T15:06:19;13.50;;;11.50;;
1959;SDS011;980;43.794;11.212;2024-02-14T15:08:45;12.00;;;12.00;;
1959;SDS011;980;43.794;11.212;2024-02-14T15:11:12;11.75;;;11.50;;
1959;SDS011;980;43.794;11.212;2024-02-14T15:13:40;12.75;;;11.50;;
1959;SDS011;980;43.794;11.212;2024-02-14T15:16:05;13.25;;;10.00;;
1959;SDS011;980;43.794;11.212;2024-02-14T15:18:33;11.00;;;10.00;;
1959;SDS011;980;43.794;11.212;2024-02-14T15:20:58;11.50;;;8.00;;
1959;SDS011;980;43.794;11.212;2024-02-14T15:23:24;16.75;;;11.75;;
1959;SDS011;980;43.794;11.212;2024-02-14T15:25:49;10.00;;;9.00;;
1959;SDS011;980;43.794;11.212;2024-02-14T15:28:14;12.00;;;10.50;;
1959;SDS011;980;43.794;11.212;2024-02-14T15:30:46;13.25;;;12.50;;
1959;SDS011;980;43.794;11.212;2024-02-14T15:33:30;12.25;;;11.75;;
1959;SDS011;980;43.794;11.212;2024-02-14T15:35:56;13.75;;;11.00;;
1959;SDS011;980;43.794;11.212;2024-02-14T15:38:31;11.00;;;11.00;;
1959;SDS011;980;43.794;11.212;2024-02-14T15:40:56;12.00;;;11.25;;
1959;SDS011;980;43.794;11.212;2024-02-14T15:43:30;10.00;;;10.00;;
1959;SDS011;980;43.794;11.212;2024-02-14T15:46:00;14.25;;;10.25;;
1959;SDS011;980;43.794;11.212;2024-02-14T15:48:25;12.50;;;11.00;;
1959;SDS011;980;43.794;11.212;2024-02-14T15:50:53;11.50;;;10.50;;
1959;SDS011;980;43.794;11.212;2024-02-14T15:53:18;11.50;;;9.00;;
1959;SDS011;980;43.794;11.212;2024-02-14T15:55:44;10.00;;;9.75;;
1959;SDS011;980;43.794;11.212;2024-02-14T15:58:10;12.00;;;11.25;;
1959;SDS011;980;43.794;11.212;2024-02-14T16:00:36;12.25;;;10.50;;
1959;SDS011;980;43.794;11.212;2024-02-14T16:03:01;15.00;;;12.00;;
1959;SDS011;980;43.794;11.212;2024-02-14T16:05:28;14.00;;;12.25;;
1959;SDS011;980;43.794;11.212;2024-02-14T16:07:53;17.00;;;13.75;;
1959;SDS011;980;43.794;11.212;2024-02-14T16:10:19;12.25;;;12.25;;
1959;SDS011;980;43.794;11.212;2024-02-14T16:12:45;15.50;;;15.00;;
1959;SDS011;980;43.794;11.212;2024-02-14T16:15:12;16.00;;;15.00;;
1959;SDS011;980;43.794;11.212;2024-02-14T16:17:37;13.50;;;11.75;;
1959;SDS011;980;43.794;11.212;2024-02-14T16:20:05;19.50;;;15.50;;
1959;SDS011;980;43.794;11.212;2024-02-14T16:22:31;15.25;;;14.75;;
1959;SDS011;980;43.794;11.212;2024-02-14T16:24:56;17.50;;;15.75;;
1959;SDS011;980;43.794;11.212;2024-02-14T16:27:22;18.00;;;16.00;;
1959;SDS011;980;43.794;11.212;2024-02-14T16:29:47;16.25;;;16.00;;
1959;SDS011;980;43.794;11.212;2024-02-14T16:32:13;23.25;;;21.75;;
1959;SDS011;980;43.794;11.212;2024-02-14T16:34:38;15.00;;;15.00;;
1959;SDS011;980;43.794;11.212;2024-02-14T16:37:04;22.00;;;19.75;;
1959;SDS011;980;43.794;11.212;2024-02-14T16:39:29;21.25;;;18.75;;
1959;SDS011;980;43.794;11.212;2024-02-14T16:41:57;20.75;;;20.75;;
1959;SDS011;980;43.794;11.212;2024-02-14T16:44:23;21.00;;;18.50;;
1959;SDS011;980;43.794;11.212;2024-02-14T16:46:49;15.50;;;13.25;;
1959;SDS011;980;43.794;11.212;2024-02-14T16:49:14;18.50;;;16.25;;
1959;SDS011;980;43.794;11.212;2024-02-14T16:51:41;14.75;;;14.75;;
1959;SDS011;980;43.794;11.212;2024-02-14T16:54:09;19.25;;;16.00;;
1959;SDS011;980;43.794;11.212;2024-02-14T16:56:34;21.00;;;16.00;;
1959;SDS011;980;43.794;11.212;2024-02-14T16:58:59;11.25;;;10.75;;
1959;SDS011;980;43.794;11.212;2024-02-14T17:01:25;23.00;;;19.00;;
1959;SDS011;980;43.794;11.212;2024-02-14T17:03:50;21.25;;;18.00;;
1959;SDS011;980;43.794;11.212;2024-02-14T17:06:19;31.75;;;25.75;;
1959;SDS011;980;43.794;11.212;2024-02-14T17:08:44;25.00;;;22.00;;
1959;SDS011;980;43.794;11.212;2024-02-14T17:11:13;24.00;;;22.25;;
1959;SDS011;980;43.794;11.212;2024-02-14T17:13:40;23.00;;;21.25;;
1959;SDS011;980;43.794;11.212;2024-02-14T17:16:05;22.00;;;20.25;;
1959;SDS011;980;43.794;11.212;2024-02-14T17:18:30;21.50;;;19.50;;
1959;SDS011;980;43.794;11.212;2024-02-14T17:20:57;21.75;;;18.25;;
1959;SDS011;980;43.794;11.212;2024-02-14T17:23:22;21.25;;;21.25;;
1959;SDS011;980;43.794;11.212;2024-02-14T17:25:48;22.00;;;19.50;;
1959;SDS011;980;43.794;11.212;2024-02-14T17:28:14;23.25;;;21.75;;
1959;SDS011;980;43.794;11.212;2024-02-14T17:30:39;29.75;;;25.25;;
1959;SDS011;980;43.794;11.212;2024-02-14T17:33:04;27.25;;;26.00;;
1959;SDS011;980;43.794;11.212;2024-02-14T17:35:30;29.50;;;27.25;;
1959;SDS011;980;43.794;11.212;2024-02-14T17:37:55;26.50;;;23.00;;
1959;SDS011;980;43.794;11.212;2024-02-14T17:40:21;25.75;;;23.50;;
1959;SDS011;980;43.794;11.212;2024-02-14T17:42:46;26.00;;;25.00;;
1959;SDS011;980;43.794;11.212;2024-02-14T17:45:12;28.50;;;27.25;;
1959;SDS011;980;43.794;11.212;2024-02-14T17:47:38;32.25;;;29.25;;
1959;SDS011;980;43.794;11.212;2024-02-14T17:50:03;25.25;;;22.25;;
1959;SDS011;980;43.794;11.212;2024-02-14T17:52:30;25.25;;;23.75;;
1959;SDS011;980;43.794;11.212;2024-02-14T17:54:55;24.75;;;22.50;;
1959;SDS011;980;43.794;11.212;2024-02-14T17:57:21;23.00;;;21.25;;
1959;SDS011;980;43.794;11.212;2024-02-14T17:59:49;23.50;;;22.25;;
1959;SDS011;980;43.794;11.212;2024-02-14T18:02:15;23.75;;;22.00;;
1959;SDS011;980;43.794;11.212;2024-02-14T18:04:41;20.00;;;18.50;;
1959;SDS011;980;43.794;11.212;2024-02-14T18:07:07;22.75;;;17.75;;
1959;SDS011;980;43.794;11.212;2024-02-14T18:09:32;17.50;;;17.00;;
1959;SDS011;980;43.794;11.212;2024-02-14T18:11:58;19.25;;;14.75;;
1959;SDS011;980;43.794;11.212;2024-02-14T18:14:23;21.25;;;17.50;;
1959;SDS011;980;43.794;11.212;2024-02-14T18:16:48;15.00;;;13.50;;
1959;SDS011;980;43.794;11.212;2024-02-14T18:19:14;18.00;;;18.00;;
1959;SDS011;980;43.794;11.212;2024-02-14T18:21:40;26.50;;;21.50;;
1959;SDS011;980;43.794;11.212;2024-02-14T18:24:05;17.50;;;17.50;;
1959;SDS011;980;43.794;11.212;2024-02-14T18:26:31;18.50;;;16.50;;
1959;SDS011;980;43.794;11.212;2024-02-14T20:38:34;32.50;;;31.50;;
1959;SDS011;980;43.794;11.212;2024-02-14T20:40:59;32.75;;;29.25;;
1959;SDS011;980;43.794;11.212;2024-02-14T20:43:24;31.00;;;27.25;;
1959;SDS011;980;43.794;11.212;2024-02-14T20:45:49;34.00;;;29.50;;
1959;SDS011;980;43.794;11.212;2024-02-14T20:48:15;27.25;;;26.75;;
1959;SDS011;980;43.794;11.212;2024-02-14T20:50:40;33.50;;;31.00;;
1959;SDS011;980;43.794;11.212;2024-02-14T20:53:06;31.50;;;29.50;;
1959;SDS011;980;43.794;11.212;2024-02-14T20:55:31;28.75;;;28.25;;
1959;SDS011;980;43.794;11.212;2024-02-14T20:57:57;38.75;;;35.00;;
1959;SDS011;980;43.794;11.212;2024-02-14T21:00:22;24.75;;;23.00;;
1959;SDS011;980;43.794;11.212;2024-02-14T21:02:48;30.25;;;24.75;;
1959;SDS011;980;43.794;11.212;2024-02-14T21:05:13;18.00;;;18.00;;
1959;SDS011;980;43.794;11.212;2024-02-14T21:07:39;29.75;;;24.50;;
1959;SDS011;980;43.794;11.212;2024-02-14T21:10:04;32.50;;;29.75;;
1959;SDS011;980;43.794;11.212;2024-02-14T21:12:30;30.00;;;25.00;;
1959;SDS011;980;43.794;11.212;2024-02-14T21:14:55;28.00;;;24.00;;
1959;SDS011;980;43.794;11.212;2024-02-14T21:17:20;34.50;;;31.00;;
1959;SDS011;980;43.794;11.212;2024-02-14T21:19:46;33.50;;;32.50;;
1959;SDS011;980;43.794;11.212;2024-02-14T21:22:11;32.00;;;28.75;;
1959;SDS011;980;43.794;11.212;2024-02-14T21:24:36;30.25;;;28.50;;
1959;SDS011;980;43.794;11.212;2024-02-14T21:27:02;30.25;;;22.75;;
1959;SDS011;980;43.794;11.212;2024-02-14T21:29:27;32.75;;;29.50;;
1959;SDS011;980;43.794;11.212;2024-02-14T21:31:53;33.25;;;29.75;;
1959;SDS011;980;43.794;11.212;2024-02-14T21:34:18;16.75;;;13.00;;
1959;SDS011;980;43.794;11.212;2024-02-14T21:36:44;31.25;;;27.50;;
1959;SDS011;980;43.794;11.212;2024-02-14T21:39:11;33.75;;;28.00;;
1959;SDS011;980;43.794;11.212;2024-02-14T21:41:36;29.00;;;28.50;;
1959;SDS011;980;43.794;11.212;2024-02-14T21:44:02;35.50;;;31.75;;
1959;SDS011;980;43.794;11.212;2024-02-14T21:46:27;29.25;;;29.25;;
1959;SDS011;980;43.794;11.212;2024-02-14T21:48:53;42.25;;;36.50;;
1959;SDS011;980;43.794;11.212;2024-02-14T21:51:18;32.75;;;27.50;;
1959;SDS011;980;43.794;11.212;2024-02-14T21:53:43;33.50;;;30.50;;
1959;SDS011;980;43.794;11.212;2024-02-14T21:56:09;35.00;;;28.00;;
1959;SDS011;980;43.794;11.212;2024-02-14T21:58:34;37.00;;;35.50;;
1959;SDS011;980;43.794;11.212;2024-02-14T22:01:00;32.75;;;30.50;;
1959;SDS011;980;43.794;11.212;2024-02-14T22:03:26;43.50;;;33.00;;
1959;SDS011;980;43.794;11.212;2024-02-14T22:05:53;38.50;;;38.25;;
1959;SDS011;980;43.794;11.212;2024-02-14T22:08:18;43.75;;;35.75;;
1959;SDS011;980;43.794;11.212;2024-02-14T22:10:43;35.00;;;32.75;;
1959;SDS011;980;43.794;11.212;2024-02-14T22:13:09;36.00;;;33.25;;
1959;SDS011;980;43.794;11.212;2024-02-14T22:15:35;32.50;;;30.25;;
1959;SDS011;980;43.794;11.212;2024-02-14T22:18:00;37.00;;;35.25;;
1959;SDS011;980;43.794;11.212;2024-02-14T22:20:25;41.75;;;35.50;;
1959;SDS011;980;43.794;11.212;2024-02-14T22:22:50;24.75;;;22.50;;
1959;SDS011;980;43.794;11.212;2024-02-14T22:25:15;34.75;;;32.75;;
1959;SDS011;980;43.794;11.212;2024-02-14T22:27:41;37.75;;;34.25;;
1959;SDS011;980;43.794;11.212;2024-02-14T22:30:06;41.00;;;35.75;;
1959;SDS011;980;43.794;11.212;2024-02-14T22:32:32;34.50;;;32.75;;
1959;SDS011;980;43.794;11.212;2024-02-14T22:34:58;38.00;;;31.50;;
1959;SDS011;980;43.794;11.212;2024-02-14T22:37:23;40.00;;;33.00;;
1959;SDS011;980;43.794;11.212;2024-02-14T22:39:48;39.50;;;31.50;;
1959;SDS011;980;43.794;11.212;2024-02-14T22:42:14;34.25;;;30.75;;
1959;SDS011;980;43.794;11.212;2024-02-14T22:44:39;34.50;;;30.00;;
1959;SDS011;980;43.794;11.212;2024-02-14T22:47:05;35.75;;;32.75;;
1959;SDS011;980;43.794;11.212;2024-02-14T22:49:33;32.00;;;29.00;;
1959;SDS011;980;43.794;11.212;2024-02-14T22:51:58;38.75;;;33.75;;
1959;SDS011;980;43.794;11.212;2024-02-14T22:54:23;37.75;;;34.50;;
1959;SDS011;980;43.794;11.212;2024-02-14T22:56:49;34.75;;;31.25;;
1959;SDS011;980;43.794;11.212;2024-02-14T22:59:14;22.50;;;14.25;;
1959;SDS011;980;43.794;11.212;2024-02-14T23:01:39;31.25;;;30.00;;
1959;SDS011;980;43.794;11.212;2024-02-14T23:04:04;35.25;;;31.00;;
1959;SDS011;980;43.794;11.212;2024-02-14T23:06:30;40.25;;;27.75;;
1959;SDS011;980;43.794;11.212;2024-02-14T23:08:55;28.00;;;28.00;;
1959;SDS011;980;43.794;11.212;2024-02-14T23:11:20;29.25;;;26.00;;
1959;SDS011;980;43.794;11.212;2024-02-14T23:13:48;33.25;;;32.50;;
1959;SDS011;980;43.794;11.212;2024-02-14T23:16:13;36.00;;;32.75;;
1959;SDS011;980;43.794;11.212;2024-02-14T23:18:38;29.50;;;26.00;;
1959;SDS011;980;43.794;11.212;2024-02-14T23:21:04;36.00;;;32.25;;
1959;SDS011;980;43.794;11.212;2024-02-14T23:23:29;29.50;;;28.75;;
1959;SDS011;980;43.794;11.212;2024-02-14T23:25:54;30.00;;;26.50;;
1959;SDS011;980;43.794;11.212;2024-02-14T23:28:20;26.00;;;20.75;;
1959;SDS011;980;43.794;11.212;2024-02-14T23:30:45;25.25;;;18.75;;
1959;SDS011;980;43.794;11.212;2024-02-14T23:33:14;34.00;;;32.00;;
1959;SDS011;980;43.794;11.212;2024-02-14T23:35:39;32.00;;;28.00;;
1959;SDS011;980;43.794;11.212;2024-02-14T23:38:05;26.00;;;20.00;;
1959;SDS011;980;43.794;11.212;2024-02-14T23:40:33;33.00;;;28.75;;
1959;SDS011;980;43.794;11.212;2024-02-14T23:42:58;29.00;;;28.75;;
1959;SDS011;980;43.794;11.212;2024-02-14T23:45:24;26.75;;;23.25;;
1959;SDS011;980;43.794;11.212;2024-02-14T23:47:50;35.25;;;25.50;;
